Time;durP1;ratioP1;P1;durP2;ratioP2;P2;SDS_P1;SDS_P2;PMS_P1;PMS_P2;Temp;Humidity;BMP_temperature;BMP_pressure;BME280_temperature;BME280_humidity;BME280_pressure;Samples;Min_cycle;Max_cycle;Signal;HPM_P1;HPM_P2
2022/09/09 00:00:19;;;;;;;4.03;0.80;;;12.60;99.90;;;;;;5035666;28;20022;-66
2022/09/09 00:02:59;;;;;;;0.88;0.88;;;12.60;99.90;;;;;;5034021;28;20127;-66
2022/09/09 00:05:49;;;;;;;2.03;0.98;;;12.50;99.90;;;;;;5034502;28;20354;-66
2022/09/09 00:08:27;;;;;;;1.63;0.90;;;12.50;99.90;;;;;;5034324;28;20079;-66
2022/09/09 00:11:00;;;;;;;5.38;1.23;;;12.50;99.90;;;;;;5034212;28;20076;-66
2022/09/09 00:13:45;;;;;;;4.75;1.20;;;12.50;99.90;;;;;;5035096;28;20484;-66
2022/09/09 00:16:31;;;;;;;2.78;1.17;;;12.50;99.90;;;;;;5033969;28;20029;-67
2022/09/09 00:19:14;;;;;;;2.80;0.98;;;12.50;99.90;;;;;;5034589;28;20036;-66
2022/09/09 00:21:51;;;;;;;4.07;1.00;;;12.50;99.90;;;;;;5034041;28;20470;-66
2022/09/09 00:24:38;;;;;;;1.15;1.08;;;12.40;99.90;;;;;;5035177;28;20021;-66
2022/09/09 00:27:14;;;;;;;3.47;0.90;;;12.50;99.90;;;;;;5035148;28;20030;-66
2022/09/09 00:29:52;;;;;;;1.05;0.75;;;12.40;99.90;;;;;;5033761;28;20481;-66
2022/09/09 00:32:18;;;;;;;2.60;0.80;;;12.40;99.90;;;;;;5035096;28;20022;-66
2022/09/09 00:35:11;;;;;;;3.13;1.13;;;12.40;99.90;;;;;;5033682;28;20029;-66
2022/09/09 00:37:38;;;;;;;1.50;0.70;;;12.40;99.90;;;;;;5034668;28;20041;-66
2022/09/09 00:40:18;;;;;;;1.33;0.77;;;12.40;99.90;;;;;;5034838;28;20032;-66
2022/09/09 00:42:45;;;;;;;1.15;1.02;;;12.40;99.90;;;;;;5034651;28;20099;-67
2022/09/09 00:45:14;;;;;;;1.33;1.23;;;12.30;99.90;;;;;;5034734;28;20113;-67
2022/09/09 00:47:45;;;;;;;1.48;1.00;;;12.30;99.90;;;;;;5034833;28;20032;-66
2022/09/09 00:50:29;;;;;;;1.98;0.55;;;12.30;99.90;;;;;;5034750;28;20056;-66
2022/09/09 00:53:29;;;;;;;0.70;0.70;;;12.30;99.90;;;;;;5034378;28;20035;-67
2022/09/09 00:56:16;;;;;;;0.77;0.77;;;12.20;99.90;;;;;;5034369;28;20385;-66
2022/09/09 00:59:24;;;;;;;2.33;1.02;;;12.30;99.90;;;;;;5035774;28;20037;-67
2022/09/09 01:01:52;;;;;;;1.05;0.80;;;12.20;99.90;;;;;;5033500;28;20037;-66
2022/09/09 01:04:28;;;;;;;0.80;0.80;;;12.20;99.90;;;;;;5034327;28;20038;-66
2022/09/09 01:07:11;;;;;;;4.40;0.88;;;12.20;99.90;;;;;;5033309;28;20112;-67
2022/09/09 01:09:46;;;;;;;4.18;0.88;;;12.20;99.90;;;;;;5034350;28;20471;-67
2022/09/09 01:12:17;;;;;;;0.60;0.60;;;12.10;99.90;;;;;;5034779;28;20029;-67
2022/09/09 01:14:47;;;;;;;2.10;0.93;;;12.10;99.90;;;;;;5034133;28;20040;-66
2022/09/09 01:17:21;;;;;;;2.67;0.60;;;12.10;99.90;;;;;;5034239;28;20021;-67
2022/09/09 01:20:21;;;;;;;3.00;0.80;;;12.10;99.90;;;;;;5033045;28;20385;-67
2022/09/09 01:23:12;;;;;;;4.00;0.80;;;12.00;99.90;;;;;;5034363;28;20026;-66
2022/09/09 01:25:44;;;;;;;1.25;0.90;;;12.00;99.90;;;;;;5033306;28;20030;-66
2022/09/09 01:28:15;;;;;;;1.02;0.80;;;12.00;99.90;;;;;;5034524;28;20026;-67
2022/09/09 01:30:42;;;;;;;0.77;0.77;;;12.00;99.90;;;;;;5034221;28;20061;-67
2022/09/09 01:33:16;;;;;;;2.30;0.98;;;12.00;99.90;;;;;;5033979;28;20022;-67
2022/09/09 01:35:41;;;;;;;3.35;1.02;;;12.00;99.90;;;;;;5034455;28;20104;-67
2022/09/09 01:38:07;;;;;;;0.93;0.70;;;12.00;99.90;;;;;;5034016;28;20105;-67
2022/09/09 01:40:33;;;;;;;3.25;0.85;;;11.90;99.90;;;;;;5034087;28;20030;-67
2022/09/09 01:42:59;;;;;;;0.80;0.77;;;11.90;99.90;;;;;;5034166;28;20072;-67
2022/09/09 01:45:25;;;;;;;10.85;1.00;;;11.90;99.90;;;;;;5032324;28;20050;-67
2022/09/09 01:47:52;;;;;;;1.70;0.95;;;11.90;99.90;;;;;;5033854;28;20029;-67
2022/09/09 01:50:18;;;;;;;0.80;0.80;;;11.90;99.90;;;;;;5034027;28;20029;-67
2022/09/09 01:52:47;;;;;;;1.38;0.70;;;11.90;99.90;;;;;;5033489;28;20029;-67
2022/09/09 01:55:13;;;;;;;1.42;1.05;;;11.80;99.90;;;;;;5033007;28;20083;-66
2022/09/09 01:57:43;;;;;;;2.78;1.27;;;11.80;99.90;;;;;;5034195;28;20029;-67
2022/09/09 02:00:13;;;;;;;2.40;1.00;;;11.80;99.90;;;;;;5033947;28;20030;-66
2022/09/09 02:03:04;;;;;;;4.18;0.98;;;11.80;99.90;;;;;;5032083;28;20553;-66
2022/09/09 02:05:30;;;;;;;0.80;0.80;;;11.70;99.90;;;;;;5037270;28;20025;-67
2022/09/09 02:08:21;;;;;;;0.77;0.60;;;11.70;99.90;;;;;;5037673;28;20030;-67
2022/09/09 02:11:00;;;;;;;1.33;0.70;;;11.70;99.90;;;;;;5037630;28;20140;-67
2022/09/09 02:13:26;;;;;;;2.08;1.17;;;11.70;99.90;;;;;;5036320;28;20124;-67
2022/09/09 02:16:03;;;;;;;1.50;1.10;;;11.70;99.90;;;;;;5037415;28;20113;-67
2022/09/09 02:18:45;;;;;;;2.10;0.93;;;11.70;99.90;;;;;;5037478;28;20025;-67
2022/09/09 02:21:13;;;;;;;4.03;1.00;;;11.60;99.90;;;;;;5037441;28;20095;-66
2022/09/09 02:23:42;;;;;;;1.80;1.13;;;11.60;99.90;;;;;;5036090;28;20036;-66
2022/09/09 02:26:13;;;;;;;2.85;0.98;;;11.60;99.90;;;;;;5036064;28;20037;-67
2022/09/09 02:28:40;;;;;;;1.27;0.88;;;11.60;99.90;;;;;;5037527;28;20035;-66
2022/09/09 02:31:06;;;;;;;5.07;1.73;;;11.60;99.90;;;;;;5037212;28;20034;-66
2022/09/09 02:33:41;;;;;;;3.22;1.02;;;11.60;99.90;;;;;;5037199;28;20026;-67
2022/09/09 02:36:09;;;;;;;0.98;0.70;;;11.60;99.90;;;;;;5035820;28;20037;-67
2022/09/09 02:38:40;;;;;;;0.82;0.82;;;11.60;99.90;;;;;;5036454;28;20030;-66
2022/09/09 02:41:06;;;;;;;3.03;1.00;;;11.60;99.90;;;;;;5037242;28;20025;-67
2022/09/09 02:43:35;;;;;;;2.35;1.10;;;11.60;99.90;;;;;;5035707;28;20074;-67
2022/09/09 02:46:03;;;;;;;;;;;11.60;99.90;;;;;;5037367;28;20029;-66
2022/09/09 02:49:01;;;;;;;4.75;0.90;;;11.60;99.90;;;;;;5036989;28;20051;-67
2022/09/09 02:51:27;;;;;;;2.87;0.97;;;11.60;99.90;;;;;;5036564;28;20469;-66
2022/09/09 02:54:22;;;;;;;1.67;1.00;;;11.60;99.90;;;;;;5036903;28;20265;-67
2022/09/09 02:56:56;;;;;;;1.88;0.90;;;11.50;99.90;;;;;;5036735;28;20065;-67
2022/09/09 02:59:24;;;;;;;1.33;1.23;;;11.50;99.90;;;;;;5035664;28;20432;-66
2022/09/09 03:01:50;;;;;;;1.42;0.80;;;11.50;99.90;;;;;;5036401;28;20025;-67
2022/09/09 03:04:15;;;;;;;1.27;0.90;;;11.50;99.90;;;;;;5036726;28;20058;-66
2022/09/09 03:06:41;;;;;;;0.82;0.82;;;11.50;99.90;;;;;;5036252;28;20056;-66
2022/09/09 03:09:07;;;;;;;1.17;0.75;;;11.50;99.90;;;;;;5036571;28;20036;-67
2022/09/09 03:11:33;;;;;;;3.15;0.80;;;11.50;99.90;;;;;;5035209;28;20034;-66
2022/09/09 03:13:59;;;;;;;4.65;1.02;;;11.50;99.90;;;;;;5036454;28;20052;-67
2022/09/09 03:16:24;;;;;;;3.42;1.17;;;11.50;99.90;;;;;;5034790;28;20057;-66
2022/09/09 03:18:50;;;;;;;0.93;0.85;;;11.50;99.90;;;;;;5036395;28;20560;-67
2022/09/09 03:21:16;;;;;;;1.33;0.75;;;11.50;99.90;;;;;;5036387;28;20033;-66
2022/09/09 03:23:41;;;;;;;1.63;0.70;;;11.50;99.90;;;;;;5036484;28;20029;-67
2022/09/09 03:26:08;;;;;;;2.70;0.82;;;11.50;99.90;;;;;;5036514;28;20531;-66
2022/09/09 03:28:33;;;;;;;0.90;0.77;;;11.50;99.90;;;;;;5036229;28;20147;-66
2022/09/09 03:31:04;;;;;;;2.25;0.80;;;11.50;99.90;;;;;;5036382;28;20026;-66
2022/09/09 03:33:31;;;;;;;4.60;0.77;;;11.50;99.90;;;;;;5036150;28;20096;-66
2022/09/09 03:35:57;;;;;;;0.88;0.88;;;11.50;99.90;;;;;;5034683;28;20056;-67
2022/09/09 03:38:26;;;;;;;3.33;0.85;;;11.50;99.90;;;;;;5035695;28;20040;-66
2022/09/09 03:40:57;;;;;;;2.95;1.00;;;11.50;99.90;;;;;;5035951;28;20196;-66
2022/09/09 03:43:26;;;;;;;1.00;0.90;;;11.50;99.90;;;;;;5036196;28;20104;-66
2022/09/09 03:45:52;;;;;;;;;;;11.50;99.90;;;;;;5036401;28;20469;-66
2022/09/09 03:48:18;;;;;;;3.50;0.80;;;11.40;99.90;;;;;;5035821;28;19919;-66
2022/09/09 03:50:45;;;;;;;1.02;0.68;;;11.40;99.90;;;;;;5035810;28;20022;-66
2022/09/09 03:53:11;;;;;;;4.05;0.75;;;11.40;99.90;;;;;;5035673;28;20033;-66
2022/09/09 03:55:37;;;;;;;1.20;1.08;;;11.40;99.90;;;;;;5035540;28;20033;-66
2022/09/09 03:58:02;;;;;;;1.65;0.90;;;11.40;99.90;;;;;;5035611;28;20033;-66
2022/09/09 04:00:30;;;;;;;1.50;0.82;;;11.30;99.90;;;;;;5035636;28;20047;-70
2022/09/09 04:02:57;;;;;;;2.20;0.80;;;11.30;99.90;;;;;;5033946;28;20056;-66
2022/09/09 04:05:23;;;;;;;5.05;1.08;;;11.30;99.90;;;;;;5035363;28;20118;-66
2022/09/09 04:07:48;;;;;;;1.65;0.80;;;11.30;99.90;;;;;;5035099;28;20103;-66
2022/09/09 04:10:15;;;;;;;3.00;0.90;;;11.30;99.90;;;;;;5034191;28;20025;-66
2022/09/09 04:12:41;;;;;;;3.03;0.80;;;11.30;99.90;;;;;;5034997;28;20032;-65
2022/09/09 04:15:07;;;;;;;0.73;0.73;;;11.30;99.90;;;;;;5035391;28;20112;-66
2022/09/09 04:17:33;;;;;;;1.20;0.65;;;11.30;99.90;;;;;;5033877;28;20382;-66
2022/09/09 04:19:59;;;;;;;1.90;1.10;;;11.30;99.90;;;;;;5035212;28;20033;-65
2022/09/09 04:22:24;;;;;;;1.85;1.15;;;11.30;99.90;;;;;;5033820;28;20373;-66
2022/09/09 04:24:50;;;;;;;0.75;0.75;;;11.30;99.90;;;;;;5033806;28;20026;-65
2022/09/09 04:27:15;;;;;;;2.78;1.15;;;11.30;99.90;;;;;;5034135;28;20037;-65
2022/09/09 04:29:41;;;;;;;1.73;0.75;;;11.30;99.90;;;;;;5034953;28;20033;-66
2022/09/09 04:32:07;;;;;;;2.83;1.25;;;11.30;99.90;;;;;;5034946;28;20026;-66
2022/09/09 04:34:32;;;;;;;1.42;1.08;;;11.20;99.90;;;;;;5034867;28;20033;-65
2022/09/09 04:36:59;;;;;;;1.38;0.82;;;11.20;99.90;;;;;;5033583;28;20382;-61
2022/09/09 04:39:25;;;;;;;1.98;0.68;;;11.20;99.90;;;;;;5034442;28;20044;-65
2022/09/09 04:41:50;;;;;;;1.83;1.25;;;11.30;99.90;;;;;;5034136;28;20033;-65
2022/09/09 04:44:16;;;;;;;7.00;1.08;;;11.30;99.90;;;;;;5034725;28;20037;-66
2022/09/09 04:46:41;;;;;;;1.27;0.80;;;11.20;99.90;;;;;;5033358;28;20029;-66
2022/09/09 04:49:07;;;;;;;2.80;0.90;;;11.20;99.90;;;;;;5033329;28;20026;-65
2022/09/09 04:51:33;;;;;;;2.63;0.95;;;11.20;99.90;;;;;;5034544;28;20100;-65
2022/09/09 04:53:58;;;;;;;2.25;0.80;;;11.10;99.90;;;;;;5034263;28;20100;-63
2022/09/09 04:56:26;;;;;;;2.47;0.95;;;11.10;99.90;;;;;;5034209;28;20497;-62
2022/09/09 04:58:52;;;;;;;3.42;1.83;;;11.10;99.90;;;;;;5034347;28;20034;-62
2022/09/09 05:01:24;;;;;;;3.88;1.25;;;11.20;99.90;;;;;;5034216;28;20120;-66
2022/09/09 05:03:50;;;;;;;4.35;0.85;;;11.20;99.90;;;;;;5032739;28;20053;-65
2022/09/09 05:06:18;;;;;;;1.60;1.13;;;11.20;99.90;;;;;;5033992;28;20079;-65
2022/09/09 05:08:44;;;;;;;2.27;0.83;;;11.20;99.90;;;;;;5033081;28;20048;-65
2022/09/09 05:11:14;;;;;;;2.40;0.85;;;11.20;99.90;;;;;;5034022;28;20390;-65
2022/09/09 05:13:40;;;;;;;2.05;0.90;;;11.20;99.90;;;;;;5032506;28;20052;-66
2022/09/09 05:16:05;;;;;;;3.15;1.15;;;11.30;99.90;;;;;;5046869;28;20037;-65
2022/09/09 05:18:31;;;;;;;1.60;1.00;;;11.20;99.90;;;;;;5052885;28;20124;-65
2022/09/09 05:21:00;;;;;;;6.30;1.20;;;11.20;99.90;;;;;;5052376;28;20124;-64
2022/09/09 05:23:26;;;;;;;1.80;1.08;;;11.20;99.90;;;;;;5053926;28;20025;-65
2022/09/09 05:25:56;;;;;;;1.30;1.10;;;11.20;99.90;;;;;;5053740;28;20120;-65
2022/09/09 05:28:24;;;;;;;1.77;0.80;;;11.20;99.90;;;;;;5054040;28;20025;-64
2022/09/09 05:31:13;;;;;;;1.63;1.00;;;11.30;99.90;;;;;;5053602;28;20025;-65
2022/09/09 05:33:41;;;;;;;2.10;1.13;;;11.40;99.90;;;;;;5052284;28;20048;-64
2022/09/09 05:36:10;;;;;;;2.15;0.82;;;11.70;99.90;;;;;;5053459;28;20036;-65
2022/09/09 05:38:37;;;;;;;3.67;1.08;;;12.00;99.90;;;;;;5053073;28;20425;-65
2022/09/09 05:41:03;;;;;;;2.35;0.80;;;12.30;99.90;;;;;;5053551;28;20048;-65
2022/09/09 05:43:31;;;;;;;2.75;0.90;;;12.40;99.90;;;;;;5053564;28;20480;-65
2022/09/09 05:46:11;;;;;;;2.10;0.82;;;12.70;99.90;;;;;;5053275;28;20385;-65
2022/09/09 05:48:39;;;;;;;5.15;0.90;;;12.90;99.90;;;;;;5052822;28;20191;-65
2022/09/09 05:51:06;;;;;;;6.03;0.82;;;13.10;99.90;;;;;;5054013;28;20102;-65
2022/09/09 05:53:34;;;;;;;5.10;1.08;;;13.10;99.90;;;;;;5053834;28;20107;-65
2022/09/09 05:56:05;;;;;;;1.15;0.65;;;13.20;99.90;;;;;;5052857;28;20028;-65
2022/09/09 05:58:34;;;;;;;2.75;0.95;;;13.10;99.90;;;;;;5053344;28;20056;-65
2022/09/09 06:01:04;;;;;;;2.78;0.80;;;13.10;99.90;;;;;;5053858;28;20057;-65
2022/09/09 06:03:29;;;;;;;3.38;0.98;;;13.10;99.90;;;;;;5053378;28;20040;-65
2022/09/09 06:06:00;;;;;;;3.55;1.00;;;13.00;99.90;;;;;;5054039;28;20123;-66
2022/09/09 06:08:26;;;;;;;4.00;0.80;;;12.90;99.90;;;;;;5054809;28;20074;-65
2022/09/09 06:10:52;;;;;;;0.73;0.73;;;12.90;99.90;;;;;;5054772;28;20037;-65
2022/09/09 06:13:18;;;;;;;3.88;0.73;;;12.80;99.90;;;;;;5053124;28;20103;-65
2022/09/09 06:15:50;;;;;;;4.30;0.82;;;13.00;99.90;;;;;;5053307;28;20072;-65
2022/09/09 06:18:18;;;;;;;3.92;0.77;;;13.20;99.90;;;;;;5053958;28;20022;-65
2022/09/09 06:20:56;;;;;;;3.42;1.40;;;13.30;99.90;;;;;;5052573;28;20025;-65
2022/09/09 06:23:22;;;;;;;3.13;1.03;;;13.80;99.90;;;;;;5052398;28;20025;-65
2022/09/09 06:25:48;;;;;;;3.92;0.80;;;14.40;99.90;;;;;;5053308;28;20036;-65
2022/09/09 06:28:15;;;;;;;1.27;0.85;;;15.00;99.90;;;;;;5051938;28;20526;-65
2022/09/09 06:30:41;;;;;;;2.95;0.50;;;15.90;99.90;;;;;;5051901;28;20112;-65
2022/09/09 06:33:07;;;;;;;0.82;0.75;;;16.60;99.90;;;;;;5052959;28;20021;-65
2022/09/09 06:35:32;;;;;;;2.92;0.30;;;17.40;99.90;;;;;;5052820;28;20086;-64
2022/09/09 06:37:58;;;;;;;2.72;0.50;;;17.90;99.90;;;;;;5053083;28;20437;-63
2022/09/09 06:40:24;;;;;;;4.50;0.55;;;18.20;99.90;;;;;;5053379;28;20025;-64
2022/09/09 06:42:50;;;;;;;3.08;0.40;;;18.10;99.90;;;;;;5053164;28;20053;-63
2022/09/09 06:45:17;;;;;;;0.85;0.50;;;17.70;99.90;;;;;;5051984;28;20064;-65
2022/09/09 06:47:43;;;;;;;2.50;0.68;;;17.30;99.90;;;;;;5051969;28;20536;-65
2022/09/09 06:50:10;;;;;;;1.17;0.43;;;17.00;99.90;;;;;;5053684;28;20369;-65
2022/09/09 06:52:35;;;;;;;1.27;0.40;;;16.70;99.90;;;;;;5057006;28;20112;-65
2022/09/09 06:55:02;;;;;;;1.40;0.40;;;16.50;99.90;;;;;;5055763;28;20061;-65
2022/09/09 06:57:28;;;;;;;2.08;0.77;;;16.40;99.90;;;;;;5056496;28;20033;-65
2022/09/09 06:59:53;;;;;;;2.58;0.70;;;16.40;99.90;;;;;;5056876;28;20035;-65
2022/09/09 07:02:19;;;;;;;3.42;0.80;;;16.40;99.90;;;;;;5056265;28;20380;-65
2022/09/09 07:04:45;;;;;;;4.88;0.60;;;16.50;99.90;;;;;;5056640;28;20021;-65
2022/09/09 07:07:13;;;;;;;1.40;0.60;;;16.70;99.90;;;;;;5055353;28;20056;-65
2022/09/09 07:09:40;;;;;;;2.60;0.60;;;16.90;99.90;;;;;;5055151;28;20033;-65
2022/09/09 07:12:06;;;;;;;3.72;0.40;;;16.90;99.90;;;;;;5054799;28;20033;-65
2022/09/09 07:14:33;;;;;;;2.17;0.50;;;16.90;99.90;;;;;;5055050;28;20125;-65
2022/09/09 07:17:00;;;;;;;2.33;0.70;;;16.90;99.90;;;;;;5055060;28;20441;-66
2022/09/09 07:19:25;;;;;;;0.57;0.52;;;17.20;99.90;;;;;;5056341;28;20060;-63
2022/09/09 07:21:51;;;;;;;1.20;0.50;;;17.70;99.90;;;;;;5055075;28;20033;-65
2022/09/09 07:24:17;;;;;;;2.20;0.70;;;18.30;99.90;;;;;;5056182;28;20029;-65
2022/09/09 07:26:43;;;;;;;3.47;0.60;;;19.00;99.90;;;;;;5056034;28;20033;-63
2022/09/09 07:29:10;;;;;;;1.63;0.50;;;19.60;99.90;;;;;;5054687;28;20070;-63
2022/09/09 07:31:39;;;;;;;1.20;0.45;;;19.90;99.90;;;;;;5056023;28;20104;-64
2022/09/09 07:34:05;;;;;;;;;;;20.20;99.90;;;;;;5056345;28;20021;-63
2022/09/09 07:36:36;;;;;;;1.58;0.40;;;20.70;99.90;;;;;;5055894;28;20081;-63
2022/09/09 07:39:08;;;;;;;2.03;0.47;;;21.10;99.90;;;;;;5056074;28;20107;-63
2022/09/09 07:41:35;;;;;;;3.47;0.40;;;21.10;99.90;;;;;;5055763;28;20461;-63
2022/09/09 07:44:13;;;;;;;3.83;0.40;;;21.70;99.90;;;;;;5055504;28;20033;-64
2022/09/09 07:46:41;;;;;;;0.50;0.40;;;22.60;99.90;;;;;;5054614;28;20346;-64
2022/09/09 07:49:08;;;;;;;1.25;0.40;;;23.30;99.90;;;;;;5054543;28;20025;-64
2022/09/09 07:51:36;;;;;;;1.02;0.30;;;23.60;98.30;;;;;;5055614;28;20112;-64
2022/09/09 07:54:06;;;;;;;0.77;0.10;;;23.50;98.30;;;;;;5054329;28;20491;-64
2022/09/09 07:56:32;;;;;;;1.95;0.30;;;23.60;97.50;;;;;;5055537;28;20044;-64
2022/09/09 07:58:58;;;;;;;0.75;0.45;;;23.60;97.40;;;;;;5054164;28;20029;-64
2022/09/09 08:01:34;;;;;;;1.77;0.40;;;23.40;97.40;;;;;;5054744;28;20025;-64
2022/09/09 08:04:08;;;;;;;0.57;0.50;;;23.10;98.10;;;;;;5053753;28;20049;-64
2022/09/09 08:06:39;;;;;;;3.25;0.50;;;23.00;99.00;;;;;;5055500;28;20029;-64
2022/09/09 08:09:06;;;;;;;1.27;0.38;;;22.80;99.70;;;;;;5055214;28;20029;-64
2022/09/09 08:11:33;;;;;;;3.97;0.60;;;22.70;99.90;;;;;;5053879;28;20072;-64
2022/09/09 08:13:58;;;;;;;2.28;0.82;;;23.00;99.90;;;;;;5053787;28;20112;-64
2022/09/09 08:16:29;;;;;;;1.63;0.57;;;23.20;98.80;;;;;;5055164;28;20475;-64
2022/09/09 08:18:55;;;;;;;1.58;0.20;;;23.20;98.10;;;;;;5054977;28;20029;-64
2022/09/09 08:21:23;;;;;;;0.90;0.20;;;23.10;96.80;;;;;;5054925;28;20113;-64
2022/09/09 08:23:52;;;;;;;2.60;0.13;;;22.90;96.60;;;;;;5054987;28;20021;-64
2022/09/09 08:26:38;;;;;;;4.10;0.25;;;22.90;96.60;;;;;;5055025;28;20469;-64
2022/09/09 08:29:06;;;;;;;1.83;0.30;;;23.20;96.80;;;;;;5055093;28;20025;-64
2022/09/09 08:31:34;;;;;;;0.75;0.20;;;23.30;96.60;;;;;;5054937;28;20032;-64
2022/09/09 08:34:02;;;;;;;2.33;0.30;;;23.30;97.20;;;;;;5054809;28;20051;-64
2022/09/09 08:36:30;;;;;;;0.87;0.30;;;23.30;97.20;;;;;;5054691;28;20033;-64
2022/09/09 08:38:57;;;;;;;0.85;0.22;;;23.50;97.20;;;;;;5053423;28;20091;-64
2022/09/09 08:41:38;;;;;;;3.33;0.52;;;23.60;97.20;;;;;;5054342;28;20110;-64
2022/09/09 08:44:20;;;;;;;0.65;0.28;;;24.50;96.70;;;;;;5054667;28;20025;-64
2022/09/09 08:47:07;;;;;;;1.27;0.30;;;25.10;94.50;;;;;;5053905;28;20033;-64
2022/09/09 08:50:05;;;;;;;4.18;0.65;;;25.20;93.80;;;;;;5054237;28;20381;-63
2022/09/09 08:52:42;;;;;;;0.57;0.40;;;25.70;92.90;;;;;;5053451;28;20416;-64
2022/09/09 08:55:21;;;;;;;2.83;0.45;;;26.50;91.40;;;;;;5053222;28;20025;-64
2022/09/09 08:57:48;;;;;;;3.72;0.40;;;27.20;86.60;;;;;;5052870;28;20037;-64
2022/09/09 09:00:14;;;;;;;1.40;0.17;;;27.00;82.50;;;;;;5054693;28;20103;-64
2022/09/09 09:02:58;;;;;;;2.58;0.60;;;26.90;80.60;;;;;;5052611;28;20045;-64
2022/09/09 09:05:43;;;;;;;3.65;0.88;;;26.70;80.80;;;;;;5054207;28;20469;-63
2022/09/09 09:08:32;;;;;;;2.28;0.47;;;26.70;79.30;;;;;;5054939;28;20036;-64
2022/09/09 09:11:00;;;;;;;2.47;0.50;;;27.70;77.60;;;;;;5054600;28;20061;-64
2022/09/09 09:14:03;;;;;;;0.80;0.22;;;28.90;72.50;;;;;;5053970;28;20084;-67
2022/09/09 09:16:34;;;;;;;2.58;0.30;;;29.30;69.10;;;;;;5053773;28;20446;-67
2022/09/09 09:19:00;;;;;;;0.30;0.10;;;29.70;65.40;;;;;;5052824;28;20031;-67
2022/09/09 09:21:46;;;;;;;2.28;0.22;;;29.70;62.20;;;;;;5053984;28;20439;-65
2022/09/09 09:24:18;;;;;;;1.92;0.20;;;30.10;61.30;;;;;;5054448;28;20033;-65
2022/09/09 09:26:44;;;;;;;0.40;0.20;;;30.00;60.10;;;;;;5053717;28;20025;-65
2022/09/09 09:29:14;;;;;;;3.30;0.20;;;30.20;59.50;;;;;;5052564;28;20044;-65
2022/09/09 09:31:47;;;;;;;0.77;0.20;;;30.40;58.00;;;;;;5052945;28;20443;-65
2022/09/09 09:34:13;;;;;;;1.38;0.20;;;30.40;58.10;;;;;;5053638;28;20079;-66
2022/09/09 09:36:52;;;;;;;0.88;0.20;;;29.90;56.60;;;;;;5053441;28;20033;-66
2022/09/09 09:39:38;;;;;;;2.75;0.40;;;29.50;58.10;;;;;;5052300;28;20021;-66
2022/09/09 09:42:15;;;;;;;5.68;0.50;;;29.50;57.20;;;;;;5053721;28;20024;-67
2022/09/09 09:44:41;;;;;;;0.75;0.15;;;29.60;57.50;;;;;;5053561;28;20056;-67
2022/09/09 09:47:20;;;;;;;1.20;0.60;;;29.30;57.30;;;;;;5053831;28;20028;-66
2022/09/09 09:49:58;;;;;;;1.63;0.47;;;29.10;58.20;;;;;;5054685;28;20032;-65
2022/09/09 09:52:32;;;;;;;3.40;0.20;;;29.30;56.50;;;;;;5053211;28;20100;-65
2022/09/09 09:54:59;;;;;;;0.30;0.20;;;29.00;57.20;;;;;;5054769;28;20032;-65
2022/09/09 09:57:30;;;;;;;1.05;0.25;;;28.80;57.30;;;;;;5054726;28;20037;-65
2022/09/09 10:00:08;;;;;;;1.05;0.10;;;28.40;56.90;;;;;;5054310;28;20031;-65
2022/09/09 10:02:42;;;;;;;1.85;0.20;;;28.60;56.60;;;;;;5052972;28;20134;-66
2022/09/09 10:05:21;;;;;;;3.45;0.40;;;28.70;57.10;;;;;;5053415;28;20375;-65
2022/09/09 10:07:59;;;;;;;1.55;0.30;;;28.70;56.30;;;;;;5052313;28;20029;-65
2022/09/09 10:10:53;;;;;;;1.25;0.47;;;29.30;55.90;;;;;;5053924;28;20453;-66
2022/09/09 10:13:25;;;;;;;2.58;0.38;;;29.40;55.00;;;;;;5053793;28;20029;-65
2022/09/09 10:16:13;;;;;;;1.10;0.35;;;29.90;53.90;;;;;;5053244;28;20488;-65
2022/09/09 10:18:57;;;;;;;3.63;0.70;;;30.20;54.00;;;;;;5052202;28;20106;-66
2022/09/09 10:21:31;;;;;;;2.30;0.20;;;30.40;53.00;;;;;;5053431;28;20021;-66
2022/09/09 10:24:08;;;;;;;1.73;0.60;;;30.10;53.30;;;;;;5053429;28;20458;-65
2022/09/09 10:26:52;;;;;;;1.77;0.43;;;29.70;53.40;;;;;;5056952;28;20078;-65
2022/09/09 10:29:51;;;;;;;1.75;0.40;;;29.60;53.90;;;;;;5057320;28;20078;-65
2022/09/09 10:32:31;;;;;;;4.10;0.57;;;30.20;53.80;;;;;;5057097;28;20029;-66
2022/09/09 10:35:16;;;;;;;1.90;0.63;;;30.50;52.80;;;;;;5058056;28;20055;-65
2022/09/09 10:38:02;;;;;;;1.25;0.55;;;29.90;53.80;;;;;;5062023;28;20123;-66
2022/09/09 10:40:33;;;;;;;3.50;0.70;;;29.60;55.30;;;;;;5055319;28;20067;-65
2022/09/09 10:43:13;;;;;;;1.33;0.40;;;30.00;55.00;;;;;;5061908;28;20029;-71
2022/09/09 10:45:55;;;;;;;2.38;0.40;;;30.40;53.50;;;;;;5062335;28;20055;-65
2022/09/09 10:48:34;;;;;;;2.30;0.50;;;30.30;53.70;;;;;;5059435;28;20106;-68
2022/09/09 10:51:14;;;;;;;1.17;0.28;;;30.50;53.20;;;;;;5056522;28;20043;-62
2022/09/09 10:54:02;;;;;;;1.10;0.50;;;30.20;52.60;;;;;;5056595;28;20025;-61
2022/09/09 10:56:29;;;;;;;0.40;0.20;;;30.20;54.50;;;;;;5057041;28;20041;-62
2022/09/09 10:59:04;;;;;;;0.75;0.20;;;29.50;54.40;;;;;;5056550;28;20075;-61
2022/09/09 11:02:11;;;;;;;0.38;0.10;;;28.40;53.50;;;;;;5056742;28;20025;-62
2022/09/09 11:04:49;;;;;;;0.35;0.15;;;27.90;56.50;;;;;;5056757;28;20044;-62
2022/09/09 11:07:26;;;;;;;0.30;0.20;;;27.80;56.20;;;;;;5056820;28;20366;-62
2022/09/09 11:09:58;;;;;;;1.05;0.30;;;27.80;56.00;;;;;;5057005;28;20024;-61
2022/09/09 11:12:26;;;;;;;1.42;0.30;;;27.80;55.90;;;;;;5056475;28;20027;-62
2022/09/09 11:15:15;;;;;;;1.27;0.70;;;27.40;55.90;;;;;;5055096;28;20537;-62
2022/09/09 11:17:49;;;;;;;3.15;0.47;;;27.10;57.10;;;;;;5055894;28;20704;-61
2022/09/09 11:20:15;;;;;;;1.85;0.30;;;27.00;58.70;;;;;;5055860;28;20059;-62
2022/09/09 11:22:50;;;;;;;1.35;0.60;;;26.70;58.30;;;;;;5055829;28;20481;-62
2022/09/09 11:25:25;;;;;;;1.15;0.50;;;26.80;58.30;;;;;;5055009;28;20435;-61
2022/09/09 11:28:19;;;;;;;4.18;1.60;;;26.90;60.00;;;;;;5055699;28;20029;-61
2022/09/09 11:30:56;;;;;;;2.42;0.40;;;27.20;59.40;;;;;;5056048;28;20017;-62
2022/09/09 11:33:31;;;;;;;1.13;0.40;;;27.60;58.70;;;;;;5055752;28;20469;-61
2022/09/09 11:36:38;;;;;;;2.25;0.50;;;27.70;58.80;;;;;;5056061;28;20033;-62
2022/09/09 11:39:26;;;;;;;2.05;0.40;;;27.30;59.00;;;;;;5014115;28;20030;-62
2022/09/09 11:41:51;;;;;;;0.60;0.40;;;27.00;57.70;;;;;;5053548;28;20041;-62
2022/09/09 11:44:26;;;;;;;3.45;0.28;;;26.80;58.70;;;;;;5055749;28;20025;-62
2022/09/09 11:46:52;;;;;;;2.63;0.45;;;27.10;58.40;;;;;;5055604;28;20373;-61
2022/09/09 11:49:45;;;;;;;1.35;0.35;;;27.30;58.40;;;;;;5055491;28;20036;-62
2022/09/09 11:52:38;;;;;;;0.45;0.20;;;27.60;57.10;;;;;;5053725;28;20124;-62
2022/09/09 11:55:32;;;;;;;0.40;0.30;;;27.90;56.40;;;;;;5050980;28;20415;-67
2022/09/09 11:58:03;;;;;;;1.20;0.40;;;27.90;57.00;;;;;;5053839;28;20080;-70
2022/09/09 12:00:41;;;;;;;0.77;0.40;;;27.80;57.70;;;;;;5055099;28;20517;-70
2022/09/09 12:03:35;;;;;;;1.35;0.45;;;27.60;57.00;;;;;;5055491;28;20052;-70
2022/09/09 12:06:54;;;;;;;1.92;0.50;;;27.50;56.80;;;;;;5054173;28;20585;-60
2022/09/09 12:09:25;;;;;;;;;;;27.20;57.70;;;;;;5037705;28;20059;-60
2022/09/09 12:11:51;;;;;;;1.17;0.43;;;26.80;57.80;;;;;;5054018;28;19905;-66
2022/09/09 12:14:22;;;;;;;0.35;0.30;;;26.30;60.10;;;;;;5055135;28;20079;-67
2022/09/09 12:16:48;;;;;;;2.38;0.30;;;26.60;60.50;;;;;;5055286;28;20033;-68
2022/09/09 12:19:21;;;;;;;2.58;0.73;;;27.00;59.70;;;;;;5053778;28;20102;-68
2022/09/09 12:22:02;;;;;;;2.50;0.40;;;27.50;59.00;;;;;;5055036;28;20453;-69
2022/09/09 12:24:39;;;;;;;0.80;0.40;;;27.50;57.90;;;;;;5055198;28;20424;-68
2022/09/09 12:27:42;;;;;;;1.33;0.40;;;27.40;59.10;;;;;;5054152;28;20424;-68
2022/09/09 12:30:14;;;;;;;5.25;0.95;;;27.40;59.60;;;;;;5053202;28;20025;-67
2022/09/09 12:32:40;;;;;;;0.85;0.30;;;27.40;59.20;;;;;;5053990;28;20047;-67
2022/09/09 12:35:27;;;;;;;2.97;0.60;;;27.40;59.70;;;;;;5054883;28;20117;-67
2022/09/09 12:37:57;;;;;;;2.25;0.80;;;27.00;59.30;;;;;;5054957;28;20044;-68
2022/09/09 12:40:32;;;;;;;1.35;0.52;;;26.90;59.90;;;;;;5054942;28;20047;-67
2022/09/09 12:43:01;;;;;;;0.75;0.50;;;27.00;60.30;;;;;;5054638;28;20075;-68
2022/09/09 12:45:28;;;;;;;;;;;26.70;60.80;;;;;;5053638;28;20140;-68
2022/09/09 12:47:55;;;;;;;2.05;0.50;;;26.60;61.00;;;;;;5054065;28;19912;-68
2022/09/09 12:50:27;;;;;;;1.83;0.60;;;26.40;61.60;;;;;;5052880;28;20029;-68
2022/09/09 12:53:09;;;;;;;2.28;0.68;;;26.00;62.30;;;;;;5053170;28;20120;-69
2022/09/09 12:55:39;;;;;;;2.50;0.65;;;25.80;63.70;;;;;;5053156;28;20033;-69
2022/09/09 12:58:06;;;;;;;2.58;0.68;;;25.70;64.20;;;;;;5054091;28;20455;-69
2022/09/09 13:00:34;;;;;;;1.50;0.80;;;25.40;64.10;;;;;;5054288;28;20052;-67
2022/09/09 13:03:17;;;;;;;1.98;0.50;;;25.10;64.50;;;;;;5053861;28;20049;-67
2022/09/09 13:05:43;;;;;;;2.60;0.60;;;24.90;66.00;;;;;;5054483;28;20025;-68
2022/09/09 13:08:11;;;;;;;4.07;0.82;;;24.60;66.50;;;;;;5054105;28;20492;-70
2022/09/09 13:10:46;;;;;;;2.00;0.47;;;24.40;68.00;;;;;;5053928;28;20436;-70
2022/09/09 13:13:18;;;;;;;0.50;0.50;;;24.20;68.60;;;;;;5054351;28;20033;-70
2022/09/09 13:16:04;;;;;;;2.22;0.80;;;24.10;69.40;;;;;;5053865;28;20029;-61